Time;durP1;ratioP1;P1;durP2;ratioP2;P2;SDS_P1;SDS_P2;PMS_P1;PMS_P2;Temp;Humidity;BMP_temperature;BMP_pressure;BME280_temperature;BME280_humidity;BME280_pressure;Samples;Min_cycle;Max_cycle;Signal;HPM_P1;HPM_P2
2023/05/21 00:01:42;;;;;;;14.90;9.35;;;435.30;2355.20;;;;;;4963984;29;20035;-82
2023/05/21 00:04:08;;;;;;;17.92;9.88;;;435.30;2355.20;;;;;;4965060;29;20027;-81
2023/05/21 00:06:34;;;;;;;12.63;8.82;;;410.50;2355.20;;;;;;4962873;29;20032;-81
2023/05/21 00:09:02;;;;;;;12.95;9.13;;;410.50;2355.20;;;;;;4963865;29;20038;-82
2023/05/21 00:11:28;;;;;;;16.23;9.98;;;435.20;2355.20;;;;;;4962766;29;20074;-82
2023/05/21 00:13:54;;;;;;;16.98;8.90;;;410.50;2355.20;;;;;;4963904;29;20027;-82
2023/05/21 00:16:21;;;;;;;14.23;9.60;;;410.50;2355.20;;;;;;4965622;29;20038;-81
2023/05/21 00:18:48;;;;;;;15.32;9.05;;;435.20;2355.20;;;;;;4964334;29;20054;-82
2023/05/21 00:21:21;;;;;;;17.92;9.40;;;410.50;2355.20;;;;;;4965326;29;20051;-82
2023/05/21 00:23:48;;;;;;;20.42;10.32;;;410.30;2355.20;;;;;;4949684;29;20027;-82
2023/05/21 00:26:14;;;;;;;15.55;9.55;;;410.50;2355.20;;;;;;4949784;29;20035;-81
2023/05/21 00:28:40;;;;;;;15.23;10.13;;;410.40;2355.20;;;;;;4965610;29;20035;-82
2023/05/21 00:31:06;;;;;;;15.77;10.50;;;410.40;2355.20;;;;;;4964949;29;20117;-81
2023/05/21 00:33:32;;;;;;;15.20;10.00;;;410.40;2355.20;;;;;;4950301;29;20033;-82
2023/05/21 00:36:00;;;;;;;13.82;9.13;;;410.00;2355.20;;;;;;4946494;29;20030;-82
2023/05/21 00:38:26;;;;;;;12.40;8.77;;;410.20;2355.20;;;;;;4958390;29;20032;-81
2023/05/21 00:40:52;;;;;;;16.00;10.48;;;410.20;2355.20;;;;;;4965757;29;20051;-82
2023/05/21 00:43:18;;;;;;;22.08;10.90;;;410.20;2355.20;;;;;;4948651;29;20487;-81
2023/05/21 00:45:46;;;;;;;15.35;10.95;;;410.20;2355.20;;;;;;4950780;29;20490;-81
2023/05/21 00:48:13;;;;;;;13.70;8.68;;;410.20;2355.20;;;;;;4950126;29;20037;-82
2023/05/21 00:50:40;;;;;;;12.75;7.88;;;410.20;2355.20;;;;;;4967054;29;20034;-83
2023/05/21 00:53:10;;;;;;;11.23;7.80;;;410.30;2355.20;;;;;;4971352;29;20027;-83
2023/05/21 00:55:36;;;;;;;11.30;8.27;;;410.30;2355.20;;;;;;4957941;29;20028;-82
2023/05/21 00:58:03;;;;;;;13.00;9.45;;;410.30;2355.20;;;;;;4948505;29;20039;-82
2023/05/21 01:00:39;;;;;;;12.98;9.20;;;410.30;2355.20;;;;;;4929473;29;20119;-82
2023/05/21 01:03:05;;;;;;;13.88;9.48;;;410.30;2355.20;;;;;;4960893;29;20026;-81
2023/05/21 01:05:31;;;;;;;14.90;9.30;;;410.30;2355.20;;;;;;4961326;29;20023;-82
2023/05/21 01:07:59;;;;;;;14.07;9.23;;;410.20;2355.20;;;;;;4962408;29;20035;-81
2023/05/21 01:10:26;;;;;;;17.17;9.27;;;410.20;2355.20;;;;;;4962268;29;20399;-82
2023/05/21 01:12:54;;;;;;;13.00;8.68;;;410.10;2355.20;;;;;;4963617;29;20027;-81
2023/05/21 01:15:20;;;;;;;15.45;9.70;;;410.00;2355.20;;;;;;4962328;29;20089;-81
2023/05/21 01:17:47;;;;;;;17.17;10.15;;;410.00;2355.20;;;;;;4959399;29;20468;-81
2023/05/21 01:20:17;;;;;;;18.02;11.07;;;409.90;2355.20;;;;;;4959614;29;20403;-81
2023/05/21 01:23:01;;;;;;;15.68;10.80;;;410.00;2355.20;;;;;;4978979;28;20384;-81
2023/05/21 01:25:27;;;;;;;18.08;10.20;;;409.90;2355.20;;;;;;4947814;29;20388;-82
2023/05/21 01:27:53;;;;;;;15.38;10.07;;;409.70;2355.20;;;;;;4946984;29;20038;-82
2023/05/21 01:30:21;;;;;;;20.40;10.73;;;409.60;2355.20;;;;;;4944279;29;20034;-82
2023/05/21 01:32:55;;;;;;;15.85;9.55;;;384.90;2329.60;;;;;;4954893;28;20023;-81
2023/05/21 01:35:26;;;;;;;12.30;9.18;;;409.60;2355.20;;;;;;4964466;29;20038;-81
2023/05/21 01:37:58;;;;;;;13.13;9.98;;;409.60;2355.20;;;;;;4969298;29;20023;-82
2023/05/21 01:40:39;;;;;;;15.43;9.90;;;409.70;2355.20;;;;;;4945535;29;20035;-83
2023/05/21 01:43:06;;;;;;;15.15;9.57;;;409.70;2355.20;;;;;;4961719;29;20289;-81
2023/05/21 01:45:35;;;;;;;15.48;9.80;;;384.90;2329.60;;;;;;4943664;29;20112;-81
2023/05/21 01:48:04;;;;;;;16.42;9.77;;;384.70;2329.60;;;;;;4958572;29;20027;-81
2023/05/21 01:50:31;;;;;;;15.00;9.52;;;384.90;2329.60;;;;;;4960520;29;20027;-81
2023/05/21 01:52:57;;;;;;;14.60;9.93;;;384.50;2329.60;;;;;;4960807;29;20051;-81
2023/05/21 01:55:23;;;;;;;16.23;9.63;;;384.50;2329.60;;;;;;4946402;29;20039;-81
2023/05/21 01:57:52;;;;;;;14.15;10.18;;;384.50;2329.60;;;;;;4944480;29;20031;-82
2023/05/21 02:00:21;;;;;;;13.82;10.30;;;384.40;2329.60;;;;;;4944820;29;20463;-81
2023/05/21 02:02:47;;;;;;;14.65;9.90;;;384.50;2329.60;;;;;;4943998;29;20036;-81
2023/05/21 02:05:13;;;;;;;15.98;10.07;;;384.50;2329.60;;;;;;4944895;29;20074;-81
2023/05/21 02:07:39;;;;;;;13.25;9.13;;;384.50;2329.60;;;;;;4946273;29;20035;-81
2023/05/21 02:57:44;;;;;;;14.52;9.93;;;358.50;2329.60;;;;;;5070945;28;20911;-80
2023/05/21 03:00:11;;;;;;;16.52;10.30;;;384.00;2329.60;;;;;;5069825;28;20067;-82
2023/05/21 03:02:37;;;;;;;14.70;10.40;;;359.10;2329.60;;;;;;5062075;28;20021;-80
2023/05/21 03:05:04;;;;;;;15.73;10.60;;;359.00;2329.60;;;;;;5050565;28;20079;-82
2023/05/21 03:07:30;;;;;;;14.68;10.10;;;359.00;2329.60;;;;;;5049362;28;20028;-79
2023/05/21 03:09:56;;;;;;;19.55;9.63;;;359.00;2329.60;;;;;;5049350;28;20037;-80
2023/05/21 03:12:22;;;;;;;12.93;9.63;;;359.00;2329.60;;;;;;5050777;28;20112;-80
2023/05/21 03:14:50;;;;;;;13.30;9.05;;;359.00;2329.60;;;;;;5050653;28;20485;-79
2023/05/21 03:17:16;;;;;;;14.93;9.32;;;359.00;2329.60;;;;;;5049593;28;20511;-79
2023/05/21 03:19:43;;;;;;;12.88;9.15;;;359.10;2329.60;;;;;;5049395;28;20393;-79
2023/05/21 03:22:10;;;;;;;12.75;9.55;;;359.20;2329.60;;;;;;5049171;28;20473;-81
2023/05/21 03:24:37;;;;;;;15.45;9.68;;;359.10;2329.60;;;;;;5049374;28;20381;-80
2023/05/21 03:27:05;;;;;;;14.13;9.55;;;359.00;2329.60;;;;;;5049305;28;20029;-79
2023/05/21 03:29:31;;;;;;;16.17;10.15;;;359.00;2329.60;;;;;;5048865;28;20033;-82
2023/05/21 03:31:57;;;;;;;15.43;10.05;;;358.60;2329.60;;;;;;5049385;28;20036;-79
2023/05/21 03:34:23;;;;;;;14.88;9.57;;;358.80;2329.60;;;;;;5049168;28;20026;-79
2023/05/21 03:36:49;;;;;;;14.52;10.25;;;358.80;2329.60;;;;;;5048976;28;20029;-79
2023/05/21 03:39:15;;;;;;;15.65;10.05;;;358.90;2329.60;;;;;;5049031;28;20096;-80
2023/05/21 03:41:42;;;;;;;14.82;10.98;;;358.90;2329.60;;;;;;5049135;28;20079;-82
2023/05/21 03:44:08;;;;;;;18.65;11.10;;;358.70;2329.60;;;;;;5048806;28;20063;-79
2023/05/21 03:46:34;;;;;;;17.13;10.93;;;358.50;2329.60;;;;;;5050226;28;20064;-79
2023/05/21 03:49:00;;;;;;;18.70;10.77;;;333.70;2329.60;;;;;;5050218;28;20036;-80
2023/05/21 03:51:26;;;;;;;14.55;10.95;;;358.60;2329.60;;;;;;5049567;28;20025;-81
2023/05/21 03:53:52;;;;;;;17.35;11.23;;;358.70;2329.60;;;;;;5048731;28;20116;-80
2023/05/21 03:56:18;;;;;;;15.27;10.80;;;358.80;2329.60;;;;;;5048435;28;20141;-81
2023/05/21 03:58:43;;;;;;;18.08;11.55;;;358.80;2329.60;;;;;;5036021;28;20075;-79
2023/05/21 04:01:09;;;;;;;16.75;10.90;;;358.70;2329.60;;;;;;5068251;28;20459;-80
2023/05/21 04:03:35;;;;;;;16.38;11.75;;;358.60;2329.60;;;;;;5068417;28;20029;-79
2023/05/21 04:06:02;;;;;;;15.90;11.63;;;358.60;2329.60;;;;;;5068500;28;20030;-81
2023/05/21 04:08:28;;;;;;;19.75;11.93;;;358.70;2329.60;;;;;;5035353;28;20029;-80
2023/05/21 04:10:54;;;;;;;14.13;11.68;;;358.40;2329.60;;;;;;5035830;28;20037;-82
2023/05/21 04:13:20;;;;;;;20.13;11.25;;;358.60;2329.60;;;;;;5068256;28;20061;-81
2023/05/21 04:15:47;;;;;;;14.82;11.48;;;358.40;2329.60;;;;;;5068477;28;20359;-80
2023/05/21 04:18:16;;;;;;;19.45;10.52;;;358.50;2329.60;;;;;;5035998;28;20037;-80
2023/05/21 04:20:42;;;;;;;17.05;10.77;;;333.70;2329.60;;;;;;5068434;28;20029;-79
2023/05/21 04:23:09;;;;;;;19.15;11.27;;;358.50;2329.60;;;;;;5035949;28;20029;-81
2023/05/21 04:25:35;;;;;;;14.30;11.43;;;358.60;2329.60;;;;;;5067843;28;20034;-80
2023/05/21 04:28:01;;;;;;;14.88;11.18;;;358.60;2329.60;;;;;;5068282;28;20041;-82
2023/05/21 04:30:26;;;;;;;15.50;11.20;;;358.60;2329.60;;;;;;5068235;28;20052;-81
2023/05/21 04:32:53;;;;;;;14.20;10.38;;;358.60;2329.60;;;;;;5034582;28;20044;-82
2023/05/21 04:35:19;;;;;;;17.33;11.10;;;358.80;2329.60;;;;;;5068367;28;20079;-81
2023/05/21 04:37:45;;;;;;;14.93;11.38;;;358.80;2329.60;;;;;;5036080;28;20422;-79
2023/05/21 04:40:16;;;;;;;16.88;11.30;;;358.80;2329.60;;;;;;5067857;28;20029;-80
2023/05/21 04:42:45;;;;;;;16.60;11.35;;;358.90;2329.60;;;;;;5068152;28;20382;-82
2023/05/21 04:45:11;;;;;;;16.35;10.73;;;358.90;2329.60;;;;;;5035627;28;20028;-81
2023/05/21 04:47:37;;;;;;;16.02;10.65;;;358.80;2329.60;;;;;;5067937;28;20122;-82
2023/05/21 04:50:03;;;;;;;15.00;10.50;;;359.00;2329.60;;;;;;5033556;28;20057;-80
2023/05/21 04:52:30;;;;;;;12.50;10.63;;;359.10;2329.60;;;;;;5033816;28;20034;-81
2023/05/21 04:54:56;;;;;;;16.25;11.25;;;359.00;2329.60;;;;;;5034693;28;20053;-80
2023/05/21 04:57:25;;;;;;;13.60;10.63;;;359.10;2329.60;;;;;;5035815;28;20056;-80
2023/05/21 04:59:51;;;;;;;19.75;11.77;;;359.30;2329.60;;;;;;5033853;28;20394;-81
2023/05/21 05:02:17;;;;;;;14.00;11.23;;;384.00;2329.60;;;;;;5035783;28;20036;-82
2023/05/21 05:04:43;;;;;;;16.08;11.10;;;359.20;2329.60;;;;;;5034345;28;20036;-79
2023/05/21 05:07:09;;;;;;;14.50;11.52;;;359.30;2329.60;;;;;;5035142;28;20026;-79
2023/05/21 05:09:35;;;;;;;17.80;11.55;;;384.00;2329.60;;;;;;5034225;28;20104;-80
2023/05/21 05:12:01;;;;;;;17.10;11.18;;;384.00;2329.60;;;;;;5034008;28;20183;-79
2023/05/21 05:14:26;;;;;;;16.77;10.88;;;384.20;2329.60;;;;;;5033831;28;20029;-80
2023/05/21 05:16:52;;;;;;;17.33;10.80;;;384.20;2329.60;;;;;;5043801;28;20029;-79
2023/05/21 05:19:19;;;;;;;16.70;11.20;;;384.20;2329.60;;;;;;5052768;28;20036;-80
2023/05/21 05:21:45;;;;;;;17.17;12.07;;;384.10;2329.60;;;;;;5052376;28;20465;-80
2023/05/21 05:24:11;;;;;;;17.45;11.10;;;384.30;2329.60;;;;;;5055274;28;20462;-80
2023/05/21 05:26:37;;;;;;;20.95;11.18;;;384.50;2329.60;;;;;;5054819;28;20036;-78
2023/05/21 05:29:02;;;;;;;14.82;10.18;;;384.60;2329.60;;;;;;5053308;28;20029;-80
2023/05/21 05:31:28;;;;;;;13.48;10.45;;;384.60;2329.60;;;;;;5053632;28;20037;-79
2023/05/21 05:33:54;;;;;;;17.33;12.02;;;384.60;2329.60;;;;;;5053666;28;20029;-80
2023/05/21 05:36:21;;;;;;;14.02;11.02;;;384.60;2329.60;;;;;;5053105;28;20029;-80
2023/05/21 05:38:47;;;;;;;15.18;11.00;;;384.70;2329.60;;;;;;5054620;28;20017;-80
2023/05/21 05:41:12;;;;;;;15.27;11.25;;;384.70;2329.60;;;;;;5053068;28;20025;-80
2023/05/21 05:43:38;;;;;;;18.25;11.73;;;384.80;2329.60;;;;;;5053277;28;20029;-79
2023/05/21 05:46:04;;;;;;;15.90;10.85;;;409.60;2355.20;;;;;;5053126;28;20171;-80
2023/05/21 05:48:30;;;;;;;13.93;10.23;;;409.60;2355.20;;;;;;5052302;28;20478;-78
2023/05/21 05:50:56;;;;;;;15.38;10.63;;;409.70;2355.20;;;;;;5050905;28;20029;-80
2023/05/21 05:53:21;;;;;;;16.00;10.82;;;409.80;2355.20;;;;;;5066728;28;20037;-79
2023/05/21 05:55:47;;;;;;;15.25;11.32;;;410.00;2355.20;;;;;;5066207;28;20160;-80
2023/05/21 05:58:13;;;;;;;15.32;10.10;;;410.20;2355.20;;;;;;5032920;28;20048;-81
2023/05/21 06:00:39;;;;;;;13.23;9.32;;;410.30;2355.20;;;;;;5032844;28;20076;-82
2023/05/21 06:03:05;;;;;;;16.92;9.60;;;410.40;2355.20;;;;;;5032636;28;20087;-79
2023/05/21 06:05:30;;;;;;;13.90;9.00;;;410.50;2355.20;;;;;;5034368;28;20104;-80
2023/05/21 06:07:56;;;;;;;13.27;9.07;;;435.20;2355.20;;;;;;5034065;28;20474;-80
2023/05/21 06:10:22;;;;;;;14.93;9.63;;;435.30;2355.20;;;;;;5032694;28;20026;-81
2023/05/21 06:12:48;;;;;;;12.85;9.35;;;435.50;2355.20;;;;;;5032939;28;20025;-79
2023/05/21 06:15:15;;;;;;;11.90;9.75;;;435.50;2355.20;;;;;;5034393;28;20424;-81
2023/05/21 06:17:41;;;;;;;13.20;10.18;;;435.60;2355.20;;;;;;5032653;28;20026;-78
2023/05/21 06:20:08;;;;;;;16.38;10.18;;;435.70;2355.20;;;;;;5066066;28;20026;-78
2023/05/21 06:22:35;;;;;;;12.30;9.85;;;435.80;2355.20;;;;;;5033051;28;20044;-84
2023/05/21 06:25:01;;;;;;;15.10;10.02;;;435.90;2355.20;;;;;;5033621;28;20021;-81
2023/05/21 06:27:27;;;;;;;11.85;9.52;;;436.10;2355.20;;;;;;5066286;28;20033;-82
2023/05/21 06:29:53;;;;;;;13.20;9.32;;;460.90;2380.80;;;;;;5032769;28;20029;-80
2023/05/21 06:32:20;;;;;;;16.58;9.07;;;460.90;2380.80;;;;;;5065801;28;20048;-80
2023/05/21 06:34:46;;;;;;;15.13;8.65;;;461.10;2380.80;;;;;;5032637;28;20044;-81
2023/05/21 06:37:11;;;;;;;16.55;10.93;;;461.20;2380.80;;;;;;5033614;28;20474;-80
2023/05/21 06:39:37;;;;;;;14.52;10.00;;;461.30;2380.80;;;;;;5032713;28;20033;-79
2023/05/21 06:42:03;;;;;;;14.32;8.68;;;461.40;2380.80;;;;;;5033941;28;20037;-79
2023/05/21 06:44:29;;;;;;;12.73;9.45;;;461.50;2380.80;;;;;;5033643;28;20394;-79
2023/05/21 06:46:55;;;;;;;10.30;8.70;;;461.60;2380.80;;;;;;5037340;28;20148;-84
2023/05/21 06:49:21;;;;;;;14.38;8.60;;;461.70;2380.80;;;;;;5051745;28;20025;-79
2023/05/21 06:51:46;;;;;;;13.73;8.95;;;486.40;2380.80;;;;;;5052099;28;20075;-79
2023/05/21 06:54:12;;;;;;;12.30;8.45;;;486.50;2380.80;;;;;;5052358;28;20025;-81
2023/05/21 06:56:39;;;;;;;13.18;8.43;;;486.60;2380.80;;;;;;5055248;28;20485;-79
2023/05/21 06:59:04;;;;;;;13.27;8.85;;;486.60;2380.80;;;;;;5051988;28;20037;-79
2023/05/21 07:01:31;;;;;;;17.60;9.05;;;486.70;2380.80;;;;;;5052419;28;20051;-80
2023/05/21 07:03:56;;;;;;;13.07;8.50;;;486.80;2380.80;;;;;;5053673;28;20021;-79
2023/05/21 07:06:22;;;;;;;14.60;8.05;;;487.00;2380.80;;;;;;5052090;28;20170;-79
2023/05/21 07:08:48;;;;;;;10.82;7.80;;;487.20;2380.80;;;;;;5053723;28;20071;-80
2023/05/21 07:11:14;;;;;;;15.82;8.48;;;487.10;2380.80;;;;;;5052622;28;20531;-82
2023/05/21 07:13:40;;;;;;;12.00;7.90;;;512.00;2380.80;;;;;;5051932;28;20025;-81
2023/05/21 07:16:06;;;;;;;8.68;7.22;;;512.20;2380.80;;;;;;5051108;28;20048;-80
2023/05/21 07:18:32;;;;;;;10.10;7.60;;;512.30;2380.80;;;;;;5051337;28;20386;-79
2023/05/21 07:20:58;;;;;;;13.73;7.82;;;512.40;2380.80;;;;;;5051824;28;20025;-79
2023/05/21 07:23:24;;;;;;;10.88;7.70;;;512.60;2380.80;;;;;;5053365;28;20531;-80
2023/05/21 07:25:50;;;;;;;14.57;6.72;;;512.70;2380.80;;;;;;5051990;28;20029;-79
2023/05/21 07:28:16;;;;;;;9.20;6.68;;;512.70;2380.80;;;;;;5053021;28;20033;-79
2023/05/21 07:30:42;;;;;;;9.23;6.25;;;512.70;2380.80;;;;;;5051921;28;20033;-80
2023/05/21 07:33:08;;;;;;;10.32;6.90;;;512.90;2380.80;;;;;;5055439;28;20489;-81
2023/05/21 07:35:34;;;;;;;12.77;7.35;;;537.60;2406.40;;;;;;5057032;28;20029;-82
2023/05/21 07:38:00;;;;;;;10.07;7.32;;;537.90;2406.40;;;;;;5056142;28;20071;-82
2023/05/21 07:40:25;;;;;;;13.10;7.10;;;538.00;2406.40;;;;;;5056581;28;20074;-84
2023/05/21 07:42:51;;;;;;;11.38;6.55;;;538.20;2406.40;;;;;;5055914;28;20029;-82
2023/05/21 07:45:17;;;;;;;9.68;6.53;;;538.30;2406.40;;;;;;5055921;28;20386;-80
2023/05/21 07:47:45;;;;;;;10.25;6.95;;;538.30;2406.40;;;;;;5056867;28;20079;-84
2023/05/21 07:50:13;;;;;;;10.30;6.47;;;538.50;2406.40;;;;;;5056974;28;20021;-82
2023/05/21 07:52:39;;;;;;;13.85;10.45;;;538.50;2406.40;;;;;;5055766;28;20021;-81
2023/05/21 07:55:06;;;;;;;10.70;7.80;;;538.50;2406.40;;;;;;5055223;28;20032;-79
2023/05/21 07:57:32;;;;;;;16.08;10.65;;;538.50;2406.40;;;;;;5055134;28;20048;-81
2023/05/21 07:59:57;;;;;;;7.82;6.47;;;563.50;2432.00;;;;;;5055441;28;20036;-82
2023/05/21 08:02:23;;;;;;;12.40;6.72;;;563.60;2432.00;;;;;;5055149;28;20029;-81
2023/05/21 08:04:49;;;;;;;8.45;5.78;;;563.70;2432.00;;;;;;5055363;28;20107;-80
2023/05/21 08:07:18;;;;;;;14.73;9.60;;;563.90;2432.00;;;;;;5056329;28;20033;-82
2023/05/21 08:09:44;;;;;;;11.82;7.43;;;564.10;2432.00;;;;;;5056368;28;20079;-78
2023/05/21 08:12:14;;;;;;;9.05;5.93;;;588.90;2355.20;;;;;;5055224;28;20025;-78
2023/05/21 08:14:40;;;;;;;11.20;5.72;;;589.10;2304.00;;;;;;5054937;28;20029;-78
2023/05/21 08:17:09;;;;;;;13.75;8.73;;;589.50;2252.80;;;;;;5055638;28;20021;-80
2023/05/21 08:19:35;;;;;;;10.40;5.55;;;589.60;2176.00;;;;;;5056418;28;20036;-78
2023/05/21 08:22:02;;;;;;;10.13;5.47;;;589.70;2176.00;;;;;;5054984;28;20036;-79
2023/05/21 08:24:28;;;;;;;9.43;5.28;;;589.60;2176.00;;;;;;5054547;28;20047;-78
2023/05/21 08:26:53;;;;;;;12.50;6.20;;;614.50;2201.60;;;;;;5055881;28;20469;-80
2023/05/21 08:29:19;;;;;;;22.50;19.55;;;614.60;2176.00;;;;;;5056435;28;20029;-79
2023/05/21 08:31:45;;;;;;;11.43;7.15;;;614.50;2201.60;;;;;;5057041;28;20033;-82
2023/05/21 08:34:11;;;;;;;16.30;11.32;;;614.50;2201.60;;;;;;5055220;28;20021;-77
2023/05/21 08:36:37;;;;;;;12.05;8.52;;;589.70;2227.20;;;;;;5055245;28;20058;-80
2023/05/21 08:39:03;;;;;;;13.23;9.73;;;589.70;2252.80;;;;;;5054471;28;20021;-80
2023/05/21 08:41:32;;;;;;;9.77;6.65;;;614.40;2252.80;;;;;;5054339;28;20025;-79
2023/05/21 08:44:01;;;;;;;12.18;8.48;;;614.50;2201.60;;;;;;5055393;28;20017;-80
2023/05/21 08:46:35;;;;;;;11.68;9.00;;;614.50;2201.60;;;;;;5050161;28;20044;-80
2023/05/21 08:49:02;;;;;;;10.95;5.40;;;614.40;2227.20;;;;;;5032374;28;20398;-79
2023/05/21 08:51:30;;;;;;;10.43;7.68;;;614.40;2227.20;;;;;;5033717;28;20025;-79
2023/05/21 08:53:57;;;;;;;19.00;8.65;;;589.70;2227.20;;;;;;5035306;28;20025;-79
2023/05/21 08:56:24;;;;;;;11.63;6.53;;;589.70;2227.20;;;;;;5033771;28;20030;-76
2023/05/21 08:58:50;;;;;;;12.52;6.40;;;589.60;2227.20;;;;;;5033756;28;20048;-78
2023/05/21 09:01:18;;;;;;;11.77;6.68;;;589.60;2227.20;;;;;;5032692;28;20029;-78
2023/05/21 09:03:45;;;;;;;12.23;8.43;;;614.40;2201.60;;;;;;5033027;28;20021;-77
2023/05/21 09:06:15;;;;;;;10.68;6.47;;;614.50;2176.00;;;;;;5034485;28;20037;-78
2023/05/21 09:08:45;;;;;;;10.70;5.38;;;614.80;2176.00;;;;;;5033739;28;20043;-77
2023/05/21 09:11:12;;;;;;;9.73;5.43;;;615.10;2124.80;;;;;;5034424;28;20381;-78
2023/05/21 09:13:40;;;;;;;9.27;6.38;;;640.00;2099.20;;;;;;5067116;28;20378;-78
2023/05/21 09:16:08;;;;;;;14.50;8.55;;;640.00;2073.60;;;;;;5067008;28;20490;-78
2023/05/21 09:18:34;;;;;;;11.07;6.47;;;640.20;2048.00;;;;;;5034503;28;20033;-78
2023/05/21 09:21:24;;;;;;;13.15;7.55;;;640.50;2022.40;;;;;;5034531;28;20021;-78
2023/05/21 09:23:58;;;;;;;11.82;7.00;;;640.70;1996.80;;;;;;5034895;28;20036;-77
2023/05/21 09:26:25;;;;;;;13.07;8.95;;;640.90;1996.80;;;;;;5033227;28;20124;-80
2023/05/21 09:28:55;;;;;;;14.48;10.20;;;665.70;2022.40;;;;;;5033389;28;20478;-78
2023/05/21 09:31:23;;;;;;;13.63;8.52;;;665.80;2048.00;;;;;;5034369;28;20052;-79
2023/05/21 09:33:49;;;;;;;12.18;8.23;;;666.10;2022.40;;;;;;5066223;28;20025;-77
2023/05/21 09:36:19;;;;;;;12.48;8.65;;;665.90;2022.40;;;;;;5033286;28;20398;-79
2023/05/21 09:38:46;;;;;;;18.38;8.75;;;666.00;1971.20;;;;;;5033165;28;20033;-79
2023/05/21 09:41:12;;;;;;;9.07;6.10;;;666.10;1945.60;;;;;;5033818;28;20021;-79
2023/05/21 09:43:42;;;;;;;8.40;5.45;;;666.10;1971.20;;;;;;5034415;28;20048;-79
2023/05/21 09:46:08;;;;;;;13.40;7.03;;;666.00;1971.20;;;;;;5035976;28;20029;-80
2023/05/21 09:48:39;;;;;;;21.95;8.55;;;666.20;1945.60;;;;;;5054241;28;20159;-79
2023/05/21 09:51:15;;;;;;;14.25;7.53;;;666.30;1971.20;;;;;;5054479;28;20088;-79
2023/05/21 09:53:53;;;;;;;15.73;9.13;;;666.40;1945.60;;;;;;5054063;28;20032;-79
2023/05/21 09:56:23;;;;;;;17.35;7.88;;;691.20;1920.00;;;;;;5053232;28;20033;-79
2023/05/21 09:58:53;;;;;;;20.23;11.75;;;691.30;1894.40;;;;;;5052827;28;20040;-79
2023/05/21 10:01:20;;;;;;;13.05;9.27;;;691.20;1894.40;;;;;;5052456;28;20032;-78
2023/05/21 10:03:50;;;;;;;19.63;7.93;;;691.40;1920.00;;;;;;5053637;28;20025;-77
2023/05/21 10:06:18;;;;;;;14.43;8.55;;;691.70;1920.00;;;;;;5052505;28;20024;-79
2023/05/21 10:08:46;;;;;;;9.35;7.30;;;691.80;1868.80;;;;;;5053696;28;20490;-79
2023/05/21 10:11:13;;;;;;;17.42;8.88;;;691.40;1868.80;;;;;;5052773;28;20021;-80
2023/05/21 10:13:43;;;;;;;11.68;7.22;;;691.40;1894.40;;;;;;5053595;28;20352;-79
2023/05/21 10:16:09;;;;;;;13.10;8.32;;;691.30;1894.40;;;;;;5053379;28;20096;-79
2023/05/21 10:18:38;;;;;;;14.32;8.98;;;691.20;1894.40;;;;;;5052422;28;20033;-78
2023/05/21 10:21:06;;;;;;;14.07;8.52;;;666.30;1920.00;;;;;;5052497;28;20115;-78
2023/05/21 10:23:33;;;;;;;11.82;6.22;;;666.20;1971.20;;;;;;5053401;28;20025;-80
2023/05/21 10:26:00;;;;;;;15.13;7.82;;;666.00;1971.20;;;;;;5053314;28;20029;-80
2023/05/21 10:28:28;;;;;;;10.98;6.63;;;666.30;1945.60;;;;;;5052195;28;20032;-80
2023/05/21 10:30:54;;;;;;;12.43;8.32;;;691.30;1920.00;;;;;;5052222;28;20027;-78
2023/05/21 10:33:23;;;;;;;15.20;8.45;;;691.40;1894.40;;;;;;5052113;28;20025;-80
2023/05/21 10:35:51;;;;;;;11.25;6.72;;;691.30;1894.40;;;;;;5051927;28;20539;-81
2023/05/21 10:38:19;;;;;;;13.55;7.88;;;666.40;1920.00;;;;;;5053862;28;20489;-81
2023/05/21 10:40:47;;;;;;;14.00;6.47;;;666.20;1920.00;;;;;;5052404;28;20033;-80
2023/05/21 10:43:23;;;;;;;14.95;9.30;;;666.00;1894.40;;;;;;5052149;28;20029;-78
2023/05/21 10:46:20;;;;;;;16.58;9.15;;;665.70;1894.40;;;;;;5053429;28;20033;-79
2023/05/21 10:48:52;;;;;;;13.70;7.97;;;665.60;1945.60;;;;;;5053499;28;20158;-81
2023/05/21 10:51:28;;;;;;;11.73;7.27;;;665.60;1971.20;;;;;;5053063;28;20029;-80
2023/05/21 10:54:24;;;;;;;14.05;8.07;;;665.60;1996.80;;;;;;5053237;28;20266;-79
2023/05/21 10:56:59;;;;;;;16.60;9.13;;;665.60;1996.80;;;;;;5052920;28;20045;-81
2023/05/21 10:59:39;;;;;;;12.02;6.57;;;640.90;1945.60;;;;;;5052222;28;20021;-79
2023/05/21 11:02:06;;;;;;;12.15;7.63;;;640.70;1945.60;;;;;;5052325;28;20429;-77
2023/05/21 11:04:33;;;;;;;13.02;7.53;;;640.60;1945.60;;;;;;5053043;28;20031;-80
2023/05/21 11:06:59;;;;;;;15.27;8.63;;;640.40;1971.20;;;;;;5052069;28;20120;-79
2023/05/21 11:09:26;;;;;;;20.05;11.68;;;640.30;1971.20;;;;;;5055978;28;20064;-79
2023/05/21 11:11:56;;;;;;;24.25;12.10;;;640.20;1996.80;;;;;;5056924;28;20021;-81
2023/05/21 11:14:33;;;;;;;18.48;11.23;;;640.10;1996.80;;;;;;5055793;28;20025;-80
2023/05/21 11:17:01;;;;;;;13.52;7.72;;;640.00;1996.80;;;;;;5057556;28;20033;-81
2023/05/21 11:19:41;;;;;;;33.83;22.13;;;615.30;1996.80;;;;;;5056862;28;20021;-79
2023/05/21 11:22:26;;;;;;;26.70;17.35;;;615.30;1996.80;;;;;;5057147;28;20029;-79
2023/05/21 11:25:01;;;;;;;16.30;11.75;;;615.20;1996.80;;;;;;5056737;28;20032;-78
2023/05/21 11:27:40;;;;;;;16.98;9.35;;;615.20;1971.20;;;;;;5056947;28;20021;-78
2023/05/21 11:30:14;;;;;;;12.25;8.77;;;615.20;1971.20;;;;;;5055651;28;20049;-80
2023/05/21 11:33:06;;;;;;;12.07;8.98;;;615.10;1971.20;;;;;;5055300;28;20079;-81
2023/05/21 11:35:44;;;;;;;21.73;13.60;;;615.10;1996.80;;;;;;5055455;28;20385;-78
2023/05/21 11:38:10;;;;;;;18.58;11.70;;;615.10;2022.40;;;;;;5056142;28;20103;-79
2023/05/21 11:40:36;;;;;;;13.98;9.32;;;615.10;2022.40;;;;;;5055497;28;20017;-80
2023/05/21 11:43:02;;;;;;;15.05;10.18;;;615.00;1996.80;;;;;;5056718;28;20035;-81
2023/05/21 11:45:31;;;;;;;14.32;9.65;;;615.00;2022.40;;;;;;5055252;28;20032;-81
2023/05/21 11:47:57;;;;;;;19.10;10.85;;;615.00;1996.80;;;;;;5044890;28;20037;-79
2023/05/21 11:50:23;;;;;;;21.52;13.63;;;615.00;1971.20;;;;;;5034964;28;20083;-78
2023/05/21 11:52:49;;;;;;;17.15;12.52;;;615.00;1945.60;;;;;;5035192;28;20030;-79
2023/05/21 11:55:21;;;;;;;22.42;13.60;;;615.10;1945.60;;;;;;5035223;28;20099;-80
2023/05/21 11:57:47;;;;;;;18.92;11.60;;;615.10;1945.60;;;;;;5036012;28;20053;-77
2023/05/21 12:00:15;;;;;;;15.93;9.57;;;614.90;1945.60;;;;;;5035834;28;20072;-79
2023/05/21 12:02:50;;;;;;;14.75;9.52;;;640.20;1920.00;;;;;;5035053;28;20022;-79
2023/05/21 12:05:16;;;;;;;14.15;7.05;;;640.90;1894.40;;;;;;5035103;28;20136;-80
2023/05/21 12:07:47;;;;;;;10.57;6.88;;;666.00;1894.40;;;;;;5035911;28;20482;-81
2023/05/21 12:10:13;;;;;;;12.35;7.35;;;666.00;1843.20;;;;;;5035094;28;20033;-79
2023/05/21 12:12:39;;;;;;;14.10;6.85;;;666.10;1868.80;;;;;;5036274;28;20026;-78
2023/05/21 12:15:06;;;;;;;9.50;5.90;;;666.40;1843.20;;;;;;5035526;28;20034;-80
2023/05/21 12:17:31;;;;;;;11.40;6.05;;;666.50;1792.00;;;;;;5034748;28;20025;-79
2023/05/21 12:19:58;;;;;;;12.90;5.40;;;666.40;1792.00;;;;;;5036115;28;20037;-80
2023/05/21 12:22:26;;;;;;;9.93;6.20;;;666.20;1766.40;;;;;;5034577;28;20159;-78
2023/05/21 12:24:52;;;;;;;10.77;6.28;;;666.00;1792.00;;;;;;5035999;28;20029;-81
2023/05/21 12:27:20;;;;;;;11.02;6.45;;;665.90;1792.00;;;;;;5035468;28;20052;-81
2023/05/21 12:29:50;;;;;;;17.30;6.53;;;665.90;1817.60;;;;;;5035567;28;20025;-78
2023/05/21 12:32:16;;;;;;;13.60;6.38;;;665.70;1792.00;;;;;;5034590;28;20362;-81
2023/05/21 12:34:51;;;;;;;14.38;8.43;;;665.60;1792.00;;;;;;5035201;28;20032;-79
2023/05/21 12:37:26;;;;;;;14.93;8.35;;;665.60;1817.60;;;;;;5034646;28;20495;-81
2023/05/21 12:39:58;;;;;;;29.52;13.75;;;665.60;1817.60;;;;;;5035778;28;20052;-79
2023/05/21 12:42:34;;;;;;;14.80;7.67;;;665.60;1843.20;;;;;;5034065;28;20021;-81
2023/05/21 12:45:05;;;;;;;20.88;10.10;;;665.90;1817.60;;;;;;5034330;28;20422;-78
2023/05/21 12:47:32;;;;;;;29.27;16.27;;;666.50;1792.00;;;;;;5034314;28;20056;-80
2023/05/21 12:49:58;;;;;;;20.70;13.40;;;691.20;1817.60;;;;;;5035246;28;20116;-78
2023/05/21 12:52:26;;;;;;;23.13;10.95;;;666.50;1817.60;;;;;;5035308;28;20022;-79
2023/05/21 12:54:53;;;;;;;18.38;8.80;;;666.50;1766.40;;;;;;5034137;28;20521;-79
2023/05/21 12:57:29;;;;;;;22.60;10.93;;;666.40;1766.40;;;;;;5034884;28;20046;-80